Time;durP1;ratioP1;P1;durP2;ratioP2;P2;SDS_P1;SDS_P2;PMS_P1;PMS_P2;Temp;Humidity;BMP_temperature;BMP_pressure;BME280_temperature;BME280_humidity;BME280_pressure;Samples;Min_cycle;Max_cycle;Signal;HPM_P1;HPM_P2
2022/03/07 00:01:32;;;;;;;79.35;44.73;;;;;;;0.99;60.28;94461.42;1552265;90;21076;-50
2022/03/07 00:03:59;;;;;;;100.33;51.25;;;;;;;1.06;60.20;94457.31;1557045;90;21174;-49
2022/03/07 00:06:27;;;;;;;90.77;47.70;;;;;;;1.07;60.05;94454.23;1553860;91;21178;-48
2022/03/07 00:08:56;;;;;;;89.32;46.25;;;;;;;1.14;59.85;94460.20;1553882;91;21110;-49
2022/03/07 00:11:25;;;;;;;83.72;44.15;;;;;;;1.19;59.31;94448.38;1553738;90;21157;-50
2022/03/07 00:13:55;;;;;;;73.70;40.75;;;;;;;1.22;59.26;94444.87;1551682;92;21058;-49
2022/03/07 00:16:24;;;;;;;70.95;38.88;;;;;;;1.31;59.19;94436.31;1556400;90;21174;-49
2022/03/07 00:18:52;;;;;;;70.47;38.95;;;;;;;1.42;58.99;94433.73;1552102;92;21145;-49
2022/03/07 00:21:19;;;;;;;76.62;37.40;;;;;;;1.52;58.63;94436.94;1551794;90;21079;-48
2022/03/07 00:23:48;;;;;;;77.12;39.92;;;;;;;1.56;58.23;94426.09;1546669;92;21578;-48
2022/03/07 00:26:17;;;;;;;75.85;39.00;;;;;;;1.47;58.12;94425.77;1550768;90;21138;-48
2022/03/07 00:28:47;;;;;;;72.87;38.58;;;;;;;1.32;58.32;94420.25;1554826;90;21043;-48
2022/03/07 00:31:15;;;;;;;76.45;38.42;;;;;;;1.08;58.54;94416.50;1550015;91;21084;-50
2022/03/07 00:33:42;;;;;;;71.28;36.23;;;;;;;0.97;59.04;94421.78;1541125;92;21016;-49
2022/03/07 00:36:09;;;;;;;64.53;32.10;;;;;;;0.88;59.18;94411.95;1546160;90;21119;-49
2022/03/07 00:38:37;;;;;;;71.50;36.15;;;;;;;0.84;59.31;94426.88;1559433;90;21062;-52
2022/03/07 00:41:07;;;;;;;62.40;32.70;;;;;;;0.85;59.24;94417.58;1558951;90;21125;-50
2022/03/07 00:43:34;;;;;;;75.70;38.85;;;;;;;0.84;59.11;94412.55;1530959;92;21188;-50
2022/03/07 00:46:03;;;;;;;76.33;38.30;;;;;;;0.81;59.22;94410.03;1552696;90;21574;-49
2022/03/07 00:48:31;;;;;;;70.60;37.78;;;;;;;0.80;59.35;94407.14;1555735;90;21296;-49
2022/03/07 00:50:58;;;;;;;76.30;39.65;;;;;;;0.81;59.51;94403.87;1549407;90;21130;-48
2022/03/07 00:53:26;;;;;;;67.08;36.53;;;;;;;0.80;59.74;94405.79;1553293;90;21070;-48
2022/03/07 00:55:55;;;;;;;73.22;38.85;;;;;;;0.74;59.96;94399.25;1545025;92;21164;-49
2022/03/07 00:58:23;;;;;;;69.53;39.10;;;;;;;0.67;60.36;94402.00;1549141;90;21142;-48
2022/03/07 01:00:51;;;;;;;75.15;40.30;;;;;;;0.63;60.57;94393.69;1549137;91;21013;-48
2022/03/07 01:03:18;;;;;;;71.37;39.38;;;;;;;0.58;60.71;94394.86;1549013;90;21591;-48
2022/03/07 01:05:47;;;;;;;78.97;40.45;;;;;;;0.65;61.00;94397.56;1543267;91;21578;-48
2022/03/07 01:08:16;;;;;;;71.62;37.38;;;;;;;0.78;60.80;94392.48;1548020;92;22200;-47
2022/03/07 01:10:43;;;;;;;73.62;39.60;;;;;;;0.92;60.58;94389.11;1549770;91;21091;-50
2022/03/07 01:13:12;;;;;;;70.97;39.00;;;;;;;1.00;60.43;94385.19;1546497;91;21090;-49
2022/03/07 01:15:39;;;;;;;76.40;38.88;;;;;;;1.12;60.32;94390.16;1549388;91;21300;-50
2022/03/07 01:18:07;;;;;;;67.70;35.45;;;;;;;1.17;59.86;94378.91;1539197;91;21080;-49
2022/03/07 01:20:35;;;;;;;61.58;34.05;;;;;;;1.07;59.94;94376.27;1555656;90;21908;-49
2022/03/07 01:23:05;;;;;;;80.40;42.48;;;;;;;0.96;60.08;94370.15;1557307;90;21164;-48
2022/03/07 01:25:32;;;;;;;80.55;41.63;;;;;;;0.82;60.13;94371.00;1546215;90;21079;-47
2022/03/07 01:27:59;;;;;;;85.07;44.40;;;;;;;0.77;60.26;94371.98;1553784;90;21595;-49
2022/03/07 01:30:27;;;;;;;83.35;40.85;;;;;;;0.76;60.26;94377.22;1554213;90;21665;-48
2022/03/07 01:32:55;;;;;;;79.50;44.03;;;;;;;0.74;60.47;94372.18;1548174;90;21234;-49
2022/03/07 01:35:23;;;;;;;90.10;44.25;;;;;;;0.70;60.47;94363.31;1547810;90;21019;-50
2022/03/07 01:37:50;;;;;;;87.88;44.80;;;;;;;0.59;60.55;94363.93;1533069;91;21083;-48
2022/03/07 01:40:19;;;;;;;88.10;44.70;;;;;;;0.58;60.74;94367.05;1543541;91;21087;-48
2022/03/07 01:42:46;;;;;;;83.22;42.98;;;;;;;0.67;61.07;94361.97;1534887;92;21575;-49
2022/03/07 01:45:16;;;;;;;87.53;44.42;;;;;;;0.74;60.87;94356.54;1548820;91;21258;-48
2022/03/07 01:47:44;;;;;;;87.25;41.90;;;;;;;0.77;61.02;94354.39;1541594;90;21019;-49
2022/03/07 01:50:13;;;;;;;91.17;44.77;;;;;;;0.82;60.81;94352.05;1555907;90;21179;-49
2022/03/07 01:52:44;;;;;;;89.47;42.13;;;;;;;0.83;60.86;94345.47;1557847;90;21076;-49
2022/03/07 01:55:14;;;;;;;84.87;42.60;;;;;;;0.82;60.87;94349.34;1553615;90;21530;-49
2022/03/07 01:57:44;;;;;;;80.42;39.45;;;;;;;0.76;60.78;94344.13;1545397;90;21265;-48
2022/03/07 02:00:20;;;;;;;86.78;44.05;;;;;;;0.68;60.82;94336.44;1549207;90;21023;-51
2022/03/07 02:02:48;;;;;;;73.02;37.08;;;;;;;0.64;61.01;94333.77;1544378;91;21681;-48
2022/03/07 02:05:17;;;;;;;78.62;41.25;;;;;;;0.65;61.08;94332.61;1546024;91;21099;-48
2022/03/07 02:07:48;;;;;;;81.37;39.98;;;;;;;0.61;61.17;94337.24;1550024;90;20999;-48
2022/03/07 02:10:16;;;;;;;88.35;44.38;;;;;;;0.56;61.37;94329.55;1546211;91;21860;-49
2022/03/07 02:12:44;;;;;;;85.87;41.92;;;;;;;0.57;61.50;94337.84;1549607;90;21027;-48
2022/03/07 02:15:11;;;;;;;85.28;43.95;;;;;;;0.58;61.63;94339.98;1556332;90;21060;-50
2022/03/07 02:17:45;;;;;;;83.75;42.60;;;;;;;0.57;61.88;94337.84;1547076;91;21023;-49
2022/03/07 02:20:13;;;;;;;;;;;;;;;0.67;61.99;94332.98;1551630;91;21052;-49
2022/03/07 02:22:41;;;;;;;74.35;37.60;;;;;;;0.80;61.94;94336.76;1540173;90;21771;-48
2022/03/07 02:25:09;;;;;;;86.00;43.25;;;;;;;0.91;61.68;94333.42;1548962;91;21621;-49
2022/03/07 02:27:37;;;;;;;91.12;49.13;;;;;;;1.02;61.31;94336.84;1548206;91;21119;-50
2022/03/07 02:30:07;;;;;;;95.40;49.77;;;;;;;1.08;60.91;94336.61;1544304;91;21036;-49
2022/03/07 02:32:36;;;;;;;115.47;55.57;;;;;;;1.13;60.68;94341.59;1545576;91;21139;-48
2022/03/07 02:35:06;;;;;;;93.95;47.65;;;;;;;1.14;60.47;94325.53;1537262;91;21382;-50
2022/03/07 02:37:34;;;;;;;78.97;41.70;;;;;;;1.13;60.84;94332.11;1549825;90;21437;-49
2022/03/07 02:40:04;;;;;;;71.57;38.20;;;;;;;1.15;60.69;94332.48;1541387;92;21241;-49
2022/03/07 02:42:33;;;;;;;67.30;37.15;;;;;;;1.12;60.87;94341.41;1566213;90;21575;-49
2022/03/07 02:45:00;;;;;;;84.85;43.00;;;;;;;1.14;60.93;94336.97;1547397;91;21127;-48
2022/03/07 02:47:27;;;;;;;85.50;44.85;;;;;;;1.07;60.98;94335.06;1549793;91;21252;-49
2022/03/07 02:49:54;;;;;;;83.45;42.75;;;;;;;1.09;61.16;94339.50;1549930;90;21494;-49
2022/03/07 02:52:22;;;;;;;77.87;39.10;;;;;;;1.13;61.15;94332.11;1543658;90;21145;-48
2022/03/07 02:54:49;;;;;;;81.17;42.03;;;;;;;1.18;61.06;94332.29;1545860;92;21096;-49
2022/03/07 02:57:17;;;;;;;82.97;42.93;;;;;;;1.26;61.01;94327.78;1538799;92;21069;-49
2022/03/07 02:59:45;;;;;;;77.55;41.85;;;;;;;1.36;60.51;94328.88;1540861;90;21574;-48
2022/03/07 03:02:14;;;;;;;89.92;47.23;;;;;;;1.38;60.29;94330.02;1550686;92;21019;-48
2022/03/07 03:04:41;;;;;;;88.40;47.55;;;;;;;1.34;60.25;94331.96;1540275;91;21031;-50
2022/03/07 03:07:09;;;;;;;93.35;48.75;;;;;;;1.33;60.26;94333.73;1555253;90;21140;-50
2022/03/07 03:09:36;;;;;;;106.58;54.40;;;;;;;1.31;60.03;94334.12;1555240;90;21197;-48
2022/03/07 03:12:04;;;;;;;126.50;61.18;;;;;;;1.27;60.33;94335.30;1549836;90;21116;-51
2022/03/07 03:14:32;;;;;;;137.18;63.42;;;;;;;1.31;60.29;94331.41;1555741;91;21148;-50
2022/03/07 03:17:02;;;;;;;128.25;62.00;;;;;;;1.27;60.25;94325.83;1548948;91;21313;-48
2022/03/07 03:19:29;;;;;;;118.55;57.98;;;;;;;1.26;60.37;94332.41;1548180;91;21123;-49
2022/03/07 03:21:56;;;;;;;102.92;50.58;;;;;;;1.25;60.23;94329.52;1546124;90;21186;-49
2022/03/07 03:24:23;;;;;;;143.32;63.23;;;;;;;1.28;60.10;94333.56;1548474;90;21276;-51
2022/03/07 03:26:52;;;;;;;123.40;54.50;;;;;;;1.28;60.10;94336.28;1549939;91;21123;-48
2022/03/07 03:29:21;;;;;;;95.62;45.38;;;;;;;1.26;60.37;94337.26;1548572;91;21075;-50
2022/03/07 03:31:51;;;;;;;91.17;43.60;;;;;;;1.26;60.44;94334.55;1549878;91;21540;-48
2022/03/07 03:34:18;;;;;;;87.60;44.30;;;;;;;1.13;60.55;94328.05;1549022;90;21055;-47
2022/03/07 03:36:46;;;;;;;87.30;43.92;;;;;;;1.02;61.00;94332.78;1535967;91;21236;-48
2022/03/07 03:39:13;;;;;;;90.57;45.20;;;;;;;1.03;61.00;94326.77;1544028;92;21008;-49
2022/03/07 03:41:41;;;;;;;76.47;40.25;;;;;;;1.01;61.08;94321.77;1548605;90;21012;-48
2022/03/07 03:44:10;;;;;;;104.92;49.33;;;;;;;0.99;60.93;94324.08;1547806;90;21058;-49
2022/03/07 03:46:37;;;;;;;97.25;49.33;;;;;;;0.91;61.11;94325.87;1544210;92;21066;-50
2022/03/07 03:49:04;;;;;;;105.15;52.53;;;;;;;0.95;61.35;94323.33;1543759;91;21713;-49
2022/03/07 03:51:34;;;;;;;134.65;63.73;;;;;;;1.06;61.27;94325.41;1548598;90;21130;-48
2022/03/07 03:54:01;;;;;;;151.27;71.50;;;;;;;1.15;61.03;94322.25;1550078;91;21189;-48
2022/03/07 03:56:31;;;;;;;127.00;59.18;;;;;;;1.13;60.79;94323.99;1516949;92;21173;-50
2022/03/07 03:58:58;;;;;;;99.32;51.08;;;;;;;1.13;61.02;94318.58;1512908;93;21121;-49
2022/03/07 04:01:25;;;;;;;92.00;46.60;;;;;;;1.21;60.86;94319.30;1517047;94;21915;-48
2022/03/07 04:03:52;;;;;;;70.50;38.78;;;;;;;1.26;60.99;94312.09;1511887;93;21127;-48
2022/03/07 04:06:20;;;;;;;64.70;34.33;;;;;;;1.31;60.86;94316.51;1545358;91;21145;-49
2022/03/07 04:08:51;;;;;;;54.03;32.03;;;;;;;1.39;60.72;94308.53;1550053;90;21066;-49
2022/03/07 04:11:20;;;;;;;58.37;31.53;;;;;;;1.41;60.55;94306.19;1524315;92;21063;-48
2022/03/07 04:13:48;;;;;;;59.98;34.38;;;;;;;1.41;60.35;94306.19;1538982;92;21184;-50
2022/03/07 04:16:15;;;;;;;81.63;45.33;;;;;;;1.36;60.50;94303.88;1549464;92;21102;-50
2022/03/07 04:18:44;;;;;;;101.15;52.08;;;;;;;1.38;60.47;94302.92;1550695;90;21023;-49
2022/03/07 04:21:11;;;;;;;102.62;50.03;;;;;;;1.32;60.29;94299.08;1542549;91;21512;-50
2022/03/07 04:23:39;;;;;;;74.07;37.60;;;;;;;1.23;60.60;94303.41;1543984;92;21082;-51
2022/03/07 04:26:06;;;;;;;67.27;36.58;;;;;;;1.17;60.76;94303.06;1534549;91;21295;-49
2022/03/07 04:28:33;;;;;;;72.08;38.63;;;;;;;1.13;60.91;94300.97;1533774;91;21072;-48
2022/03/07 04:31:02;;;;;;;69.50;35.03;;;;;;;1.16;61.12;94294.75;1546429;90;21031;-49
2022/03/07 04:33:29;;;;;;;63.25;37.10;;;;;;;1.19;61.07;94303.46;1539659;91;21130;-49
2022/03/07 04:35:56;;;;;;;74.77;40.12;;;;;;;1.17;61.26;94292.83;1548610;90;21198;-49
2022/03/07 04:38:26;;;;;;;72.60;38.90;;;;;;;1.19;61.35;94288.56;1548346;92;22187;-49
2022/03/07 04:40:54;;;;;;;105.32;52.93;;;;;;;1.25;61.21;94290.23;1542580;92;21029;-50
2022/03/07 04:43:22;;;;;;;83.50;44.40;;;;;;;1.13;61.05;94277.95;1538538;91;21130;-49
2022/03/07 04:45:52;;;;;;;65.32;35.65;;;;;;;1.04;61.51;94283.63;1515084;92;21088;-50
2022/03/07 04:48:19;;;;;;;66.42;35.75;;;;;;;1.00;61.22;94281.53;1515300;92;21119;-50
2022/03/07 04:50:47;;;;;;;114.65;55.10;;;;;;;1.01;61.35;94282.50;1522620;93;21264;-49
2022/03/07 04:53:14;;;;;;;76.45;40.70;;;;;;;1.09;61.66;94278.56;1536908;91;21055;-51
2022/03/07 04:55:41;;;;;;;74.70;43.25;;;;;;;1.15;61.28;94281.03;1556029;90;21133;-56
2022/03/07 04:58:09;;;;;;;80.05;43.10;;;;;;;1.16;60.95;94279.86;1549993;90;21549;-51
2022/03/07 05:00:36;;;;;;;68.33;38.55;;;;;;;1.09;60.89;94283.20;1555163;90;21038;-50
2022/03/07 05:03:03;;;;;;;62.78;35.65;;;;;;;1.06;61.20;94276.66;1550796;90;21114;-50
2022/03/07 05:05:31;;;;;;;29.82;19.02;;;;;;;1.05;61.16;94283.24;1555500;90;21018;-50
2022/03/07 05:07:59;;;;;;;26.75;15.68;;;;;;;0.95;61.19;94274.59;1550530;92;21066;-50
2022/03/07 05:10:27;;;;;;;24.43;16.35;;;;;;;0.88;61.26;94279.28;1553500;89;21142;-49
2022/03/07 05:12:54;;;;;;;20.35;12.93;;;;;;;0.80;61.36;94272.39;1549715;90;21056;-50
2022/03/07 05:15:22;;;;;;;21.48;15.25;;;;;;;0.70;61.42;94271.86;1545285;90;23087;-49
2022/03/07 05:17:53;;;;;;;26.80;15.90;;;;;;;0.61;61.41;94277.70;1556341;90;21062;-50
2022/03/07 05:20:19;;;;;;;24.57;14.85;;;;;;;0.53;61.66;94274.08;1537909;90;21023;-49
2022/03/07 05:22:47;;;;;;;20.80;12.90;;;;;;;0.48;61.59;94274.50;1547772;92;21148;-49
2022/03/07 05:25:17;;;;;;;19.95;13.70;;;;;;;0.45;61.65;94274.70;1536338;92;21603;-50
2022/03/07 05:27:44;;;;;;;20.50;14.43;;;;;;;0.38;61.21;94280.75;1550331;91;21223;-50
2022/03/07 05:30:15;;;;;;;22.70;15.03;;;;;;;0.25;61.56;94277.69;1542670;91;21276;-49
2022/03/07 05:32:48;;;;;;;24.57;15.40;;;;;;;0.20;62.11;94267.29;1540975;91;21507;-50
2022/03/07 05:35:15;;;;;;;21.25;15.35;;;;;;;0.22;62.19;94267.66;1549901;90;21199;-53
2022/03/07 05:37:44;;;;;;;20.90;15.18;;;;;;;0.25;62.20;94268.23;1547033;92;21023;-51
2022/03/07 05:40:12;;;;;;;23.18;15.93;;;;;;;0.21;62.28;94262.07;1548495;91;21249;-53
2022/03/07 05:42:40;;;;;;;22.90;15.63;;;;;;;0.19;62.44;94260.34;1548873;91;21110;-50
2022/03/07 05:45:10;;;;;;;30.02;18.00;;;;;;;0.27;62.54;94259.16;1548609;91;21063;-50
2022/03/07 05:47:38;;;;;;;29.72;18.05;;;;;;;0.32;62.40;94258.75;1548935;92;21070;-49
2022/03/07 05:50:06;;;;;;;32.70;19.62;;;;;;;0.33;62.41;94251.39;1539730;91;21100;-49
2022/03/07 05:52:34;;;;;;;23.32;16.77;;;;;;;0.36;62.21;94257.36;1540053;92;21859;-50
2022/03/07 05:55:04;;;;;;;41.70;23.05;;;;;;;0.43;62.24;94255.39;1543152;90;21012;-49
2022/03/07 05:57:33;;;;;;;28.87;19.35;;;;;;;0.43;62.29;94263.50;1548403;90;21035;-51
2022/03/07 06:00:00;;;;;;;26.62;17.23;;;;;;;0.42;62.36;94259.26;1543274;91;21123;-51
2022/03/07 06:02:28;;;;;;;24.07;16.62;;;;;;;0.41;62.53;94269.89;1559254;90;21168;-51
2022/03/07 06:04:55;;;;;;;22.35;14.98;;;;;;;0.46;62.36;94255.19;1552892;90;21850;-49
2022/03/07 06:07:23;;;;;;;23.80;16.17;;;;;;;0.45;62.40;94265.23;1552237;90;21528;-50
2022/03/07 06:09:50;;;;;;;22.90;15.90;;;;;;;0.39;62.52;94261.41;1550576;91;21058;-51
2022/03/07 06:12:19;;;;;;;30.85;22.13;;;;;;;0.34;62.84;94260.47;1542183;92;21077;-50
2022/03/07 06:14:46;;;;;;;24.95;17.15;;;;;;;0.30;63.14;94259.72;1549650;91;21157;-50
2022/03/07 06:17:15;;;;;;;21.55;15.48;;;;;;;0.24;63.47;94262.63;1547575;91;21991;-51
2022/03/07 06:19:44;;;;;;;21.07;14.75;;;;;;;0.26;63.63;94264.95;1548404;91;21011;-51
2022/03/07 06:22:11;;;;;;;21.37;14.75;;;;;;;0.31;63.70;94257.20;1550026;90;21590;-51
2022/03/07 06:24:38;;;;;;;21.17;15.28;;;;;;;0.30;63.95;94256.23;1549141;91;21107;-50
2022/03/07 06:27:07;;;;;;;20.97;14.80;;;;;;;0.33;64.13;94264.34;1538139;90;21030;-50
2022/03/07 06:29:34;;;;;;;53.90;40.43;;;;;;;0.34;63.92;94267.23;1543455;90;21957;-51
2022/03/07 06:32:02;;;;;;;26.68;21.25;;;;;;;0.31;63.96;94263.97;1536249;90;21082;-61
2022/03/07 06:34:31;;;;;;;26.52;21.93;;;;;;;0.29;64.11;94265.52;1536106;90;21081;-51
2022/03/07 06:36:58;;;;;;;22.90;17.95;;;;;;;0.32;64.35;94263.38;1537323;91;21518;-51
2022/03/07 06:39:27;;;;;;;20.43;15.25;;;;;;;0.29;64.20;94265.52;1520753;92;21130;-53
2022/03/07 06:41:55;;;;;;;20.40;16.07;;;;;;;0.29;64.21;94263.59;1529064;91;22024;-50
2022/03/07 06:44:24;;;;;;;22.02;16.57;;;;;;;0.33;64.42;94262.20;1546277;91;21549;-55
2022/03/07 06:46:52;;;;;;;18.85;15.10;;;;;;;0.41;64.39;94258.31;1544947;91;21104;-51
2022/03/07 06:49:19;;;;;;;20.90;15.60;;;;;;;0.45;64.19;94255.76;1548003;92;21111;-51
2022/03/07 06:51:46;;;;;;;23.45;16.42;;;;;;;0.45;64.25;94267.94;1533406;92;21602;-52
2022/03/07 06:54:14;;;;;;;19.35;16.00;;;;;;;0.45;64.24;94267.94;1535891;91;21319;-52
2022/03/07 06:56:41;;;;;;;33.83;24.32;;;;;;;0.51;64.33;94266.94;1531381;92;21148;-54
2022/03/07 06:59:08;;;;;;;23.18;17.07;;;;;;;0.56;63.87;94267.30;1535729;91;21148;-52
2022/03/07 07:01:35;;;;;;;24.43;17.73;;;;;;;0.61;63.84;94265.53;1537808;90;21194;-55
2022/03/07 07:04:03;;;;;;;24.27;17.00;;;;;;;0.57;63.81;94270.20;1534311;91;21046;-52
2022/03/07 07:06:30;;;;;;;22.32;16.17;;;;;;;0.59;63.67;94263.80;1540041;90;21314;-55
2022/03/07 07:08:57;;;;;;;21.23;15.95;;;;;;;0.61;63.57;94270.94;1538204;91;21638;-54
2022/03/07 07:11:24;;;;;;;21.45;16.20;;;;;;;0.63;63.48;94267.25;1537193;92;21070;-52
2022/03/07 07:13:52;;;;;;;27.98;18.12;;;;;;;0.69;63.49;94266.27;1539194;91;21161;-56
2022/03/07 07:16:20;;;;;;;24.57;18.23;;;;;;;0.70;63.42;94267.23;1549285;90;21141;-58
2022/03/07 07:18:49;;;;;;;30.55;18.67;;;;;;;0.72;63.39;94265.47;1555560;90;21154;-51
2022/03/07 07:21:16;;;;;;;22.90;17.00;;;;;;;0.70;63.28;94265.88;1535748;92;21523;-55
2022/03/07 07:23:43;;;;;;;29.23;18.50;;;;;;;0.75;63.03;94268.16;1543812;91;21117;-53
2022/03/07 07:26:11;;;;;;;30.05;18.37;;;;;;;0.81;63.03;94263.86;1544003;90;21581;-55
2022/03/07 07:28:39;;;;;;;32.50;23.15;;;;;;;0.83;62.69;94258.84;1543073;91;21091;-56
2022/03/07 07:31:07;;;;;;;29.82;20.65;;;;;;;0.72;62.87;94267.60;1535391;90;21194;-55
2022/03/07 07:33:36;;;;;;;27.13;19.60;;;;;;;0.68;63.15;94275.55;1530009;92;21126;-56
2022/03/07 07:36:04;;;;;;;35.90;22.40;;;;;;;0.65;63.22;94271.72;1535446;90;21071;-57
2022/03/07 07:38:31;;;;;;;34.95;21.70;;;;;;;0.66;63.70;94269.19;1541466;91;21069;-53
2022/03/07 07:40:59;;;;;;;23.80;17.20;;;;;;;0.74;63.50;94272.03;1548617;90;21069;-55
2022/03/07 07:43:26;;;;;;;20.48;15.25;;;;;;;0.74;63.43;94269.33;1539745;90;21263;-56
2022/03/07 07:45:54;;;;;;;20.75;15.20;;;;;;;0.71;63.48;94256.59;1532478;91;21064;-58
2022/03/07 07:48:21;;;;;;;21.73;16.82;;;;;;;0.71;63.24;94270.69;1545681;91;21121;-58
2022/03/07 07:50:50;;;;;;;22.62;15.63;;;;;;;0.56;63.32;94267.30;1535158;90;21637;-57
2022/03/07 07:53:17;;;;;;;20.50;16.17;;;;;;;0.44;63.34;94268.34;1532183;91;21119;-57
2022/03/07 07:55:45;;;;;;;18.75;15.72;;;;;;;0.28;63.21;94270.73;1534063;91;22089;-54
2022/03/07 07:58:12;;;;;;;15.70;12.00;;;;;;;0.15;63.56;94266.36;1540234;90;21097;-57
2022/03/07 08:00:40;;;;;;;14.38;12.28;;;;;;;0.16;63.90;94269.25;1545631;90;21162;-57
2022/03/07 08:03:07;;;;;;;19.32;14.20;;;;;;;0.17;63.88;94262.67;1532534;90;21103;-56
2022/03/07 08:05:35;;;;;;;17.92;12.55;;;;;;;0.15;63.81;94254.75;1542474;92;21059;-58
2022/03/07 08:08:02;;;;;;;12.93;11.35;;;;;;;0.14;63.79;94254.56;1539399;91;22555;-57
2022/03/07 08:10:31;;;;;;;16.05;12.58;;;;;;;0.18;63.65;94256.09;1552380;92;21062;-58
2022/03/07 08:13:00;;;;;;;12.00;10.75;;;;;;;0.17;63.30;94253.20;1530890;91;22502;-59
2022/03/07 08:15:29;;;;;;;13.83;12.33;;;;;;;0.14;63.29;94247.80;1545796;92;21069;-59
2022/03/07 08:17:58;;;;;;;15.32;12.25;;;;;;;0.10;63.39;94250.55;1546114;91;21134;-58
2022/03/07 08:20:27;;;;;;;12.45;11.05;;;;;;;0.15;63.29;94256.89;1536899;92;21115;-56
2022/03/07 08:22:54;;;;;;;15.68;12.35;;;;;;;0.17;62.89;94250.50;1542290;91;21686;-58
2022/03/07 08:25:21;;;;;;;15.15;12.53;;;;;;;0.14;62.30;94251.86;1537927;91;21125;-55
2022/03/07 08:27:49;;;;;;;19.27;15.05;;;;;;;0.03;62.31;94246.50;1543000;90;21590;-56
2022/03/07 08:30:19;;;;;;;15.63;12.10;;;;;;;-0.05;62.83;94249.62;1519588;91;21054;-58
2022/03/07 08:32:46;;;;;;;14.35;12.70;;;;;;;-0.06;62.55;94251.38;1537085;91;21291;-58
2022/03/07 08:35:14;;;;;;;18.42;12.33;;;;;;;-0.08;62.64;94255.06;1533013;91;21670;-59
2022/03/07 08:37:42;;;;;;;19.15;14.05;;;;;;;-0.05;62.58;94255.03;1525052;90;21138;-56
2022/03/07 08:40:11;;;;;;;17.90;13.68;;;;;;;-0.02;62.72;94249.62;1526813;91;21071;-54
2022/03/07 08:42:38;;;;;;;29.87;18.52;;;;;;;0.06;62.20;94253.82;1547539;90;21137;-57
2022/03/07 08:45:06;;;;;;;15.15;12.45;;;;;;;0.04;61.86;94240.53;1535652;90;21087;-58
2022/03/07 08:47:35;;;;;;;12.88;11.55;;;;;;;0.08;61.52;94243.38;1537268;90;21586;-58
2022/03/07 08:50:05;;;;;;;14.68;12.53;;;;;;;0.08;61.54;94239.33;1551415;91;21194;-58
2022/03/07 08:52:32;;;;;;;18.25;12.68;;;;;;;0.08;61.39;94240.67;1550540;90;20994;-57
2022/03/07 08:55:00;;;;;;;15.58;12.98;;;;;;;0.13;61.33;94244.34;1541814;92;21062;-58
2022/03/07 08:57:29;;;;;;;15.68;12.43;;;;;;;0.25;61.14;94239.83;1540650;90;21274;-57
2022/03/07 08:59:57;;;;;;;14.73;11.30;;;;;;;0.31;60.85;94246.39;1539070;90;21126;-56
2022/03/07 09:02:25;;;;;;;13.72;10.40;;;;;;;0.33;60.33;94238.64;1537943;92;21092;-56
2022/03/07 09:04:53;;;;;;;123.47;69.12;;;;;;;0.25;60.29;94240.42;1542621;90;21527;-58
2022/03/07 09:07:21;;;;;;;47.25;28.60;;;;;;;0.23;60.38;94240.05;1540994;92;21431;-56
2022/03/07 09:09:48;;;;;;;23.02;17.92;;;;;;;0.26;61.02;94242.72;1541028;91;21315;-63
2022/03/07 09:12:16;;;;;;;18.32;14.07;;;;;;;0.36;60.77;94241.91;1546525;91;21141;-57
2022/03/07 09:14:43;;;;;;;33.13;20.40;;;;;;;0.40;60.31;94234.54;1546353;90;21062;-56
2022/03/07 09:17:13;;;;;;;24.25;18.02;;;;;;;0.42;60.47;94229.50;1539757;91;20987;-57
2022/03/07 09:19:41;;;;;;;22.27;16.23;;;;;;;0.37;60.94;94233.98;1533104;90;21146;-57
2022/03/07 09:22:09;;;;;;;27.30;18.82;;;;;;;0.40;61.11;94237.25;1540408;90;21930;-59
2022/03/07 09:24:36;;;;;;;36.45;23.60;;;;;;;0.44;61.10;94236.64;1535422;91;21173;-56
2022/03/07 09:27:04;;;;;;;22.80;17.60;;;;;;;0.61;60.91;94238.47;1537006;90;21054;-59
2022/03/07 09:29:32;;;;;;;24.52;16.85;;;;;;;0.74;60.48;94239.55;1546851;92;21169;-57
2022/03/07 09:32:00;;;;;;;20.65;14.70;;;;;;;0.77;59.99;94236.64;1522366;92;21211;-61
2022/03/07 09:34:27;;;;;;;23.80;17.62;;;;;;;0.79;60.01;94241.83;1531735;92;21683;-58
2022/03/07 09:36:54;;;;;;;40.08;24.23;;;;;;;0.76;59.90;94233.16;1551180;90;21084;-58
2022/03/07 09:39:21;;;;;;;33.28;20.60;;;;;;;0.80;60.18;94234.49;1545440;91;21074;-56
2022/03/07 09:41:49;;;;;;;36.50;22.15;;;;;;;0.85;60.00;94228.08;1538876;91;21173;-55
2022/03/07 09:44:16;;;;;;;32.25;21.65;;;;;;;0.89;59.76;94226.11;1541690;90;21107;-58
2022/03/07 09:46:44;;;;;;;36.77;24.52;;;;;;;0.94;59.56;94229.73;1538057;90;21225;-57
2022/03/07 09:49:11;;;;;;;36.93;23.32;;;;;;;0.98;59.64;94227.02;1539636;90;21606;-56
2022/03/07 09:51:40;;;;;;;30.00;20.85;;;;;;;1.00;59.54;94229.48;1543032;90;21697;-55
2022/03/07 09:54:08;;;;;;;28.30;18.55;;;;;;;1.02;59.47;94223.69;1545668;91;21093;-55
2022/03/07 09:56:35;;;;;;;30.88;21.07;;;;;;;1.05;59.29;94231.79;1546721;92;21603;-56
2022/03/07 09:59:02;;;;;;;35.05;23.62;;;;;;;1.06;58.94;94229.27;1537387;91;21262;-59
2022/03/07 10:01:29;;;;;;;30.65;20.45;;;;;;;1.05;58.95;94222.88;1535058;91;21091;-56
2022/03/07 10:04:09;;;;;;;32.70;21.40;;;;;;;1.06;59.27;94217.65;1535230;90;21079;-55
2022/03/07 10:06:36;;;;;;;19.05;15.35;;;;;;;1.00;59.06;94226.03;1542282;90;21161;-57
2022/03/07 10:09:06;;;;;;;17.20;14.38;;;;;;;0.97;57.99;94228.94;1525549;92;21123;-57
2022/03/07 10:11:34;;;;;;;17.52;14.53;;;;;;;0.91;58.03;94222.98;1515970;90;21149;-57
2022/03/07 10:14:06;;;;;;;16.80;13.75;;;;;;;0.74;57.99;94231.44;1547439;91;21681;-58
2022/03/07 10:16:42;;;;;;;15.88;13.60;;;;;;;0.48;58.29;94226.59;1547759;91;21201;-56
2022/03/07 10:19:13;;;;;;;14.80;13.20;;;;;;;0.34;58.30;94229.94;1504573;94;21753;-58
2022/03/07 10:21:48;;;;;;;17.20;14.60;;;;;;;0.11;58.45;94229.10;1535574;92;21566;-56
2022/03/07 10:24:16;;;;;;;17.20;15.25;;;;;;;-0.08;58.93;94232.09;1533649;91;21478;-60
2022/03/07 10:26:43;;;;;;;16.00;14.30;;;;;;;-0.11;59.09;94239.60;1530993;91;21094;-60
2022/03/07 10:29:11;;;;;;;22.17;16.95;;;;;;;-0.10;58.87;94224.36;1538289;91;21086;-56
2022/03/07 10:31:44;;;;;;;25.15;17.12;;;;;;;-0.13;59.18;94221.09;1533893;92;21118;-55
2022/03/07 10:34:10;;;;;;;20.92;16.23;;;;;;;-0.13;59.07;94225.14;1529523;90;21617;-58
2022/03/07 10:36:40;;;;;;;21.07;16.42;;;;;;;-0.06;59.30;94225.70;1478961;95;21901;-57
2022/03/07 10:39:10;;;;;;;18.87;16.32;;;;;;;-0.01;58.93;94217.37;1487626;93;21076;-59
2022/03/07 10:41:42;;;;;;;21.70;16.93;;;;;;;0.00;59.01;94218.15;1500416;93;21118;-61
2022/03/07 10:44:12;;;;;;;19.82;16.52;;;;;;;-0.03;58.33;94219.51;1501606;93;21145;-56
2022/03/07 10:46:40;;;;;;;23.10;18.17;;;;;;;-0.11;58.59;94219.33;1506340;94;21170;-56
2022/03/07 10:49:08;;;;;;;20.65;16.37;;;;;;;-0.12;58.99;94221.84;1496349;94;22859;-57
2022/03/07 10:51:35;;;;;;;26.75;18.23;;;;;;;-0.10;58.61;94212.76;1491473;93;21066;-57
2022/03/07 10:54:12;;;;;;;25.60;17.82;;;;;;;-0.08;58.45;94215.87;1484950;93;21110;-55
2022/03/07 10:56:52;;;;;;;22.27;16.50;;;;;;;-0.10;58.12;94212.76;1488618;94;21137;-56
2022/03/07 10:59:31;;;;;;;24.32;17.62;;;;;;;-0.12;58.32;94221.84;1510770;92;21367;-58
2022/03/07 11:02:03;;;;;;;22.40;16.70;;;;;;;-0.18;58.16;94223.42;1503578;92;21269;-57
2022/03/07 11:04:31;;;;;;;23.95;18.30;;;;;;;-0.25;58.55;94211.30;1532573;91;21086;-57
2022/03/07 11:06:59;;;;;;;29.32;19.60;;;;;;;-0.31;57.92;94212.84;1525130;92;21104;-56
2022/03/07 11:09:27;;;;;;;31.17;19.15;;;;;;;-0.47;58.15;94214.63;1525646;92;21484;-56
2022/03/07 11:11:54;;;;;;;26.68;19.27;;;;;;;-0.57;58.67;94211.96;1535620;91;21531;-56
2022/03/07 11:14:22;;;;;;;23.98;18.75;;;;;;;-0.58;58.76;94221.22;1522812;91;21184;-58
2022/03/07 11:16:50;;;;;;;30.00;20.65;;;;;;;-0.58;58.80;94209.08;1527596;91;21107;-58
2022/03/07 11:19:20;;;;;;;23.55;19.25;;;;;;;-0.57;58.80;94203.27;1536337;91;21138;-65
2022/03/07 11:21:50;;;;;;;27.62;19.40;;;;;;;-0.55;58.87;94205.59;1516466;92;21038;-58
2022/03/07 11:24:19;;;;;;;26.25;20.25;;;;;;;-0.66;58.78;94202.91;1518327;91;21983;-57
2022/03/07 11:26:48;;;;;;;26.35;17.67;;;;;;;-0.80;59.36;94207.58;1533702;92;21145;-59
2022/03/07 11:29:16;;;;;;;24.52;18.45;;;;;;;-0.82;59.45;94201.20;1547109;91;21229;-67